Tiempo atmosférico en la estación meteorológica de Talavera De La Reina, Toledo (372 m.)



Fecha
DESCASC
Temp. máxima en grados centígrados (hora)
DESCASC
Temp. mínima en grados centígrados (hora)
DESCASC
Temp. media en grados centígrados
DESCASC
Racha de viento máxima en m/sg (hora)
DESCASC
Velocidad máxima media en intervalos de 10 minutos(hora)
DESCASC
Precipitaciones diarias en mm
DESCASC
Precipitaciones de 00:00 a 06:00 en mm
DESCASC
Precipitaciones de 06:00 a 12:00 en mm
DESCASC
Precipitaciones de 12:00 a 18:00 en mm
DESCASC
Precipitaciones de 18:00 a 24:00 en mm
DESCASC
15-08-2019 38.5 (19:00) 17.2 (07:00) 27.9 7.78 (16:40) 3.89 (18:20) 0 0 0 0 0
14-08-2019 36.1 (19:00) 15.5 (00:00) 25.8 6.67 (12:40) 3.61 (18:30) 0 0 0 0 0
13-08-2019 32.8 (19:10) 18.6 (00:00) 25.7 10.28 (04:10) 5.28 (05:10) -- 0 -- 0 0
12-08-2019 30.6 (18:40) 12 (00:00) 21.3 6.39 (16:50) 3.33 (17:50) 0 0 0 0 0
11-08-2019 30.5 (15:10) 16.3 (00:00) 23.4 12.78 (17:40) 7.22 (16:20) 0 0 0 0 0
10-08-2019 34.4 (18:40) 15.2 (00:00) 24.8 9.72 (14:50) 4.17 (16:40) 0 0 0 0 0
09-08-2019 32.2 (16:30) 21.1 (00:00) 26.7 15 (18:10) 9.17 (18:10) 0 0 0 0 0
08-08-2019 36.3 (18:10) 16.6 (00:00) 26.4 11.67 (18:40) 6.67 (19:00) 0 0 0 0 0
07-08-2019 28.1 (00:30) 21.4 (00:00) 24.8 9.44 (15:00) 6.11 (15:10) 0 0 0 0 0
06-08-2019 37 (17:30) 15.4 (00:00) 26.2 10.28 (19:20) 5.83 (17:40) 0 0 0 0 0
05-08-2019 38 (16:20) 17.6 (00:00) 27.8 8.33 (18:10) 4.17 (16:50) 0 0 0 0 0
04-08-2019 37.7 (17:40) 15.4 (00:00) 26.6 9.72 (19:00) 5.28 (20:20) 0 0 0 0 0
03-08-2019 38.1 (17:30) 15.6 (00:00) 26.8 10.28 (19:30) 4.72 (18:30) 0 0 0 0 0
02-08-2019 37.7 (18:00) 15.1 (00:00) 26.4 8.33 (16:00) 4.17 (17:20) 0 0 0 0 0
01-08-2019 37.2 (17:10) 21.1 (00:00) 29.2 12.22 (18:10) 6.39 (15:50) 0 0 0 0 0
31-07-2019 36.9 (17:40) 15.7 (00:00) 26.3 12.5 (04:50) 5.28 (04:30) 0 0 0 0 0
30-07-2019 34.2 (19:40) 13.2 (00:00) 23.7 6.67 (13:00) 2.78 (00:20) 0 0 0 0 0
29-07-2019 33.5 (17:50) 16 (00:00) 24.8 12.78 (17:20) 7.78 (17:30) 0 0 0 0 0
28-07-2019 33.4 (19:10) 16.2 (00:00) 24.8 9.72 (09:40) 4.72 (10:20) 0 0 0 0 0
27-07-2019 28.4 (19:20) 17.8 (00:00) 23.1 14.72 (16:30) 9.17 (14:40) 0 0 0 0 0
26-07-2019 31.9 (17:20) 21.7 (00:00) 26.8 14.44 (18:20) 8.33 (17:10) 0 0 0 0 0
25-07-2019 37.4 (17:20) 18.7 (00:00) 28.1 11.11 (17:20) 4.72 (17:20) 0 0 0 0 0
24-07-2019 38.9 (17:00) 19.7 (00:00) 29.3 6.67 (13:00) 2.78 (13:00) 0 0 0 0 0
23-07-2019 40.3 (18:00) 21 (00:00) 30.6 17.22 (19:40) 6.67 (01:20) 6 4 0.8 0 1.2
22-07-2019 40.7 (19:00) 26.2 (00:00) 33.5 11.67 (20:20) 5.83 (11:30) 0 0 0 0 0
21-07-2019 41 (18:30) 19.9 (00:00) 30.4 8.61 (13:00) 3.89 (12:20) 0 0 0 0 0
20-07-2019 40.1 (17:20) 19.1 (06:50) 29.6 7.5 (17:00) 4.17 (10:30) 0 0 0 0 0
19-07-2019 39.7 (17:50) 21.7 (00:00) 30.7 10.28 (07:00) 4.44 (07:00) 0 0 0 0 0

Gráficas

Temp. máximas Temp. mínimas Temp. medias Precipitaciones Rachas de viento máximas Velocidades máximas media en intervalos de 10 minutos

Datos horarios

Fecha y hora oficial Temperatura (ºC) Velocidad del viento (km/h) Dirección del viento Racha (km/h) Dirección de racha Precipitación (mm) Presión (hPa) Tendencia (hPa) Humedad (%)
2019-08-17 23:00:00 24.3 4 Sur 7 Sudoeste 0 -- -- 30
2019-08-17 22:00:00 28.7 4 Oeste 19 Oeste 0 -- -- 20
2019-08-17 21:00:00 33.7 7 Noroeste 26 Oeste 0 -- -- 12
2019-08-17 20:00:00 37.8 17 Oeste 33 Noroeste 0 -- -- 8
2019-08-17 19:00:00 39.1 16 Noroeste 36 Oeste 0 -- -- 9
2019-08-17 18:00:00 39.7 11 Noroeste 35 Oeste 0 -- -- 11
2019-08-17 17:00:00 38.8 15 Oeste 31 Oeste 0 -- -- 13
2019-08-17 16:00:00 38.5 9 Noroeste 31 Oeste 0 -- -- 14
2019-08-17 15:00:00 37.5 12 Oeste 26 Oeste 0 -- -- 14
2019-08-17 14:00:00 35.7 9 Sudoeste 25 Oeste 0 -- -- 17
2019-08-17 13:00:00 34 10 Oeste 21 Oeste 0 -- -- 20
2019-08-17 12:00:00 32.7 6 Noroeste 21 Oeste 0 -- -- 23
2019-08-17 11:00:00 29.7 3 Sur 6 Sur 0 -- -- 27
2019-08-17 10:00:00 25.5 0 Calma 8 Este 0 -- -- 36
2019-08-17 09:00:00 19.3 4 Nordeste 9 Este 0 -- -- 56
2019-08-17 08:00:00 18.3 3 Nordeste 10 Nordeste 0 -- -- 52
2019-08-17 07:00:00 18.8 3 Este 9 Este 0 -- -- 54
2019-08-17 06:00:00 18.9 4 Este 7 Este 0 -- -- 56
2019-08-17 05:00:00 18.9 3 Este 5 Este 0 -- -- 58
2019-08-17 04:00:00 19 0 Calma 3 Este 0 -- -- 62
2019-08-17 03:00:00 20.3 0 Calma 5 Sudeste 0 -- -- 57
2019-08-17 02:00:00 21.6 3 Noroeste 8 Oeste 0 -- -- 52
2019-08-17 01:00:00 22.4 4 Noroeste 5 Noroeste 0 -- -- 52
2019-08-17 00:00:00 24.8 2 Sur 6 Sudoeste 0 -- -- 41
2019-08-16 23:00:00 27.8 4 Sudoeste 11 Noroeste 0 -- -- 30
2019-08-16 22:00:00 30 6 Noroeste 19 Noroeste 0 -- -- 24
2019-08-16 21:00:00 34.6 12 Noroeste 34 Noroeste 0 -- -- 18
2019-08-16 20:00:00 37 19 Oeste 38 Noroeste 0 -- -- 14
2019-08-16 19:00:00 38.9 14 Noroeste 36 Oeste 0 -- -- 14
2019-08-16 18:00:00 38.8 11 Noroeste 35 Oeste 0 -- -- 15
2019-08-16 17:00:00 39 13 Noroeste 35 Noroeste 0 -- -- 14
2019-08-16 16:00:00 38.1 16 Oeste 35 Oeste 0 -- -- 16
2019-08-16 15:00:00 36.5 6 Oeste 17 Oeste 0 -- -- 18
2019-08-16 14:00:00 34.2 6 Nordeste 18 Este 0 -- -- 25
2019-08-16 13:00:00 32.5 6 Este 25 Este 0 -- -- 29
2019-08-16 12:00:00 30.7 10 Este 27 Sudeste 0 -- -- 32
2019-08-16 11:00:00 28.7 12 Este 26 Este 0 -- -- 37
2019-08-16 10:00:00 26.6 8 Este 19 Este 0 -- -- 37
2019-08-16 09:00:00 22.5 4 Este 9 Nordeste 0 -- -- 50
2019-08-16 08:00:00 20.6 4 Nordeste 8 Este 0 -- -- 54
2019-08-16 07:00:00 22.2 2 Nordeste 23 Este 0 -- -- 48
2019-08-16 06:00:00 25.1 9 Este 32 Este 0 -- -- 38
2019-08-16 05:00:00 26.1 14 Este 30 Este 0 -- -- 35
2019-08-16 04:00:00 22.7 5 Este 11 Este 0 -- -- 44
2019-08-16 03:00:00 22.4 3 Este 7 Nordeste 0 -- -- 45
2019-08-16 02:00:00 22 2 Este 5 Este 0 -- -- 51
2019-08-16 01:00:00 23.1 3 Norte 6 Este 0 -- -- 48
2019-08-16 00:00:00 26.2 2 Sur 13 Sur 0 -- -- 36
2019-08-15 23:00:00 27.4 3 Noroeste 6 Noroeste 0 -- -- 37
2019-08-15 22:00:00 30.2 3 Noroeste 14 Oeste 0 -- -- 30
2019-08-15 21:00:00 34.9 6 Oeste 19 Oeste 0 -- -- 19
2019-08-15 20:00:00 37.3 8 Oeste 24 Oeste 0 -- -- 15
2019-08-15 19:00:00 38.1 8 Oeste 24 Oeste 0 -- -- 14
2019-08-15 18:00:00 37.8 9 Oeste 24 Sudoeste 0 -- -- 14
2019-08-15 17:00:00 37.8 11 Oeste 28 Oeste 0 -- -- 14
2019-08-15 16:00:00 36.6 11 Sudoeste 23 Sudoeste 0 -- -- 15
2019-08-15 15:00:00 36.1 8 Oeste 17 Oeste 0 -- -- 14
2019-08-15 14:00:00 35 4 Oeste 13 Norte 0 -- -- 18
2019-08-15 13:00:00 33.4 4 Este 16 Este 0 -- -- 21
2019-08-15 12:00:00 31 5 Este 14 Nordeste 0 -- -- 27
2019-08-15 11:00:00 28 5 Este 14 Nordeste 0 -- -- 31
2019-08-15 10:00:00 24.2 4 Este 9 Nordeste 0 -- -- 35
2019-08-15 09:00:00 19.5 4 Este 10 Nordeste 0 -- -- 42
2019-08-15 08:00:00 17.5 4 Este 6 Este 0 -- -- 47
2019-08-15 07:00:00 17.3 3 Este 5 Nordeste 0 -- -- 49
2019-08-15 06:00:00 18.7 2 Este 8 Este 0 -- -- 41
2019-08-15 05:00:00 19.4 4 Este 9 Este 0 -- -- 42
2019-08-15 04:00:00 19.9 3 Este 8 Nordeste 0 -- -- 40
2019-08-15 03:00:00 20.1 4 Este 9 Este 0 -- -- 40
2019-08-15 02:00:00 19.9 2 Nordeste 8 Norte 0 -- -- 48
2019-08-15 01:00:00 21.2 2 Este 7 Sur 0 -- -- 47
2019-08-15 00:00:00 21.8 2 Noroeste 3 Oeste 0 -- -- 45
2019-08-14 23:00:00 24.1 3 Sur 7 Sur 0 -- -- 36
2019-08-14 22:00:00 27.6 2 Norte 6 Oeste 0 -- -- 26
2019-08-14 21:00:00 32.6 4 Oeste 18 Oeste 0 -- -- 17
2019-08-14 20:00:00 35.1 9 Oeste 24 Oeste 0 -- -- 12
2019-08-14 19:00:00 35.8 12 Oeste 22 Oeste 0 -- -- 11
2019-08-14 18:00:00 35.6 9 Sur 23 Sur 0 -- -- 11
2019-08-14 17:00:00 35 8 Sudoeste 21 Sudoeste 0 -- -- 12
2019-08-14 16:00:00 34.3 5 Sudoeste 18 Oeste 0 -- -- 12
2019-08-14 15:00:00 33.1 8 Oeste 19 Sudoeste 0 -- -- 13
2019-08-14 14:00:00 32.1 4 Sur 16 Sudeste 0 -- -- 13
2019-08-14 13:00:00 30.3 9 Este 24 Sudeste 0 -- -- 18
2019-08-14 12:00:00 28 7 Este 19 Este 0 -- -- 23
2019-08-14 11:00:00 25.2 6 Este 17 Este 0 -- -- 26
2019-08-14 10:00:00 21.5 6 Este 13 Nordeste 0 -- -- 28
2019-08-14 09:00:00 18.2 7 Nordeste 14 Nordeste 0 -- -- 36
2019-08-14 08:00:00 15.8 5 Nordeste 8 Nordeste 0 -- -- 40
2019-08-14 07:00:00 15.9 6 Nordeste 10 Nordeste 0 -- -- 42
2019-08-14 06:00:00 16.9 3 Este 9 Nordeste 0 -- -- 37
2019-08-14 05:00:00 16.7 4 Este 9 Este 0 -- -- 41
2019-08-14 04:00:00 17.1 3 Este 7 Nordeste 0 -- -- 43
2019-08-14 03:00:00 17.2 2 Este 8 Este 0 -- -- 48
2019-08-14 02:00:00 17.6 0 Calma 4 Nordeste 0 -- -- 52
2019-08-14 01:00:00 19.5 2 Nordeste 9 Este 0 -- -- 42
2019-08-14 00:00:00 20.6 3 Este 8 Sur 0 -- -- 40
2019-08-13 23:00:00 23.5 4 Sudeste 8 Sudeste 0 -- -- 31
2019-08-13 22:00:00 25 3 Noroeste 9 Oeste 0 -- -- 31
2019-08-13 21:00:00 30.3 4 Sudoeste 18 Sudoeste 0 -- -- 17
2019-08-13 20:00:00 32.3 9 Oeste 19 Sur 0 -- -- 14
2019-08-13 19:00:00 32.5 7 Sudoeste 18 Sudoeste 0 -- -- 13
2019-08-13 18:00:00 32.1 8 Sur 20 Oeste 0 -- -- 14
2019-08-13 17:00:00 31.8 3 Norte 17 Oeste 0 -- -- 15
2019-08-13 16:00:00 31.1 6 Norte 16 Norte 0 -- -- 17
2019-08-13 15:00:00 30 6 Norte 15 Sudeste 0 -- -- 19
2019-08-13 14:00:00 28.6 6 Sudeste 24 Este 0 -- -- 25
2019-08-13 13:00:00 27 10 Sudeste 28 Sudeste 0 -- -- 28
2019-08-13 12:00:00 25 13 Sudeste 30 Este 0 -- -- 29
2019-08-13 11:00:00 23.4 16 Este 32 Este 0 -- -- 30
2019-08-13 10:00:00 21.3 15 Este 32 Este 0 -- -- 34
2019-08-13 09:00:00 19.4 15 Este 28 Sudeste 0 -- -- 38
2019-08-13 08:00:00 18.8 13 Este -- -- -- -- -- 39
2019-08-13 07:00:00 18.9 13 Este 29 Este 0 -- -- 40
2019-08-13 06:00:00 19.6 16 Este 35 Este 0 -- -- 38
2019-08-13 05:00:00 20.5 17 Este 37 Este 0 -- -- 35
2019-08-13 04:00:00 21.6 18 Este 37 Este 0 -- -- 30
2019-08-13 03:00:00 22.7 15 Este 30 Este 0 -- -- 25
2019-08-13 02:00:00 19.9 2 Norte 8 Nordeste 0 -- -- 33
2019-08-13 01:00:00 20.3 3 Nordeste 7 Nordeste 0 -- -- 29
2019-08-13 00:00:00 20 2 Nordeste 9 Este 0 -- -- 32
2019-08-12 23:00:00 23.2 5 Este 10 Nordeste 0 -- -- 21
2019-08-12 22:00:00 23.9 6 Nordeste 13 Nordeste 0 -- -- 20
2019-08-12 21:00:00 26.3 5 Nordeste 17 Nordeste 0 -- -- 17
2019-08-12 20:00:00 29.5 6 Norte 12 Este 0 -- -- 13
2019-08-12 19:00:00 30.3 5 Norte 19 Este 0 -- -- 12
2019-08-12 18:00:00 30.3 7 Este 22 Sudeste 0 -- -- 13
2019-08-12 17:00:00 30.1 5 Sudeste 23 Sudeste 0 -- -- 14
2019-08-12 16:00:00 29.1 5 Sudeste 21 Sudeste 0 -- -- 17
2019-08-12 15:00:00 27.9 7 Sudeste 21 Sudeste 0 -- -- 18
2019-08-12 14:00:00 27 5 Este 20 Sudeste 0 -- -- 19
2019-08-12 13:00:00 25.7 5 Nordeste 17 Sudeste 0 -- -- 24
2019-08-12 12:00:00 24.2 5 Este 21 Este 0 -- -- 28
2019-08-12 11:00:00 22.3 4 Norte 11 Este 0 -- -- 32
2019-08-12 10:00:00 19.6 3 Nordeste 8 Nordeste 0 -- -- 40
2019-08-12 09:00:00 14.6 3 Este 5 Sudeste 0 -- -- 59
2019-08-12 08:00:00 12 0 Calma 7 Nordeste 0 -- -- 62
2019-08-12 07:00:00 13.1 2 Este 7 Sudeste 0 -- -- 60
2019-08-12 06:00:00 13.2 2 Este 6 Este 0 -- -- 60
2019-08-12 05:00:00 14 0 Calma 7 Nordeste 0 -- -- 58
2019-08-12 04:00:00 15.1 3 Este 12 Nordeste 0 -- -- 52
2019-08-12 03:00:00 14 0 Calma 5 Nordeste 0 -- -- 61
2019-08-12 02:00:00 15.8 2 Este 6 Sudeste 0 -- -- 54
2019-08-12 01:00:00 17.5 0 Calma 12 Sudoeste 0 -- -- 46
2019-08-12 00:00:00 20.7 6 Sudoeste 12 Sudoeste 0 -- -- 32
2019-08-11 23:00:00 22.4 5 Sudoeste 24 Oeste 0 -- -- 27
2019-08-11 22:00:00 24.5 14 Oeste 31 Noroeste 0 -- -- 22
2019-08-11 21:00:00 26.4 17 Oeste 35 Oeste 0 -- -- 17
2019-08-11 20:00:00 27.5 21 Oeste 38 Oeste 0 -- -- 16
2019-08-11 19:00:00 28.4 22 Oeste 43 Oeste 0 -- -- 17
2019-08-11 18:00:00 28.2 22 Oeste 46 Noroeste 0 -- -- 20
2019-08-11 17:00:00 29.6 22 Oeste 42 Oeste 0 -- -- 16
2019-08-11 16:00:00 29.4 22 Noroeste 44 Oeste 0 -- -- 16
2019-08-11 15:00:00 30.2 15 Noroeste 40 Oeste 0 -- -- 21
2019-08-11 14:00:00 29.1 23 Noroeste 41 Oeste 0 -- -- 22
2019-08-11 13:00:00 27.2 18 Oeste 38 Oeste 0 -- -- 31
2019-08-11 12:00:00 25 15 Oeste 32 Oeste 0 -- -- 36
2019-08-11 11:00:00 24.3 14 Noroeste 31 Oeste 0 -- -- 39
2019-08-11 10:00:00 22.5 13 Noroeste 32 Noroeste 0 -- -- 45
2019-08-11 09:00:00 20.2 18 Oeste 29 Oeste 0 -- -- 52
2019-08-11 08:00:00 17 5 Norte 20 Noroeste 0 -- -- 64
2019-08-11 07:00:00 19.8 4 Sudeste 13 Sudoeste 0 -- -- 55
2019-08-11 06:00:00 21.6 4 Sudoeste 18 Oeste 0 -- -- 47
2019-08-11 05:00:00 21.8 12 Oeste 23 Oeste 0 -- -- 45
2019-08-11 04:00:00 16.3 4 Sudoeste 8 Sudoeste 0 -- -- 60
2019-08-11 03:00:00 16.7 0 Calma 2 Sur 0 -- -- 59
2019-08-11 02:00:00 17.7 0 Calma 4 Sudeste 0 -- -- 58
2019-08-11 01:00:00 18 3 Noroeste 5 Noroeste 0 -- -- 55
2019-08-11 00:00:00 19.4 4 Sur 8 Sur 0 -- -- 45
2019-08-10 23:00:00 20.9 0 Calma 5 Oeste 0 -- -- 40
2019-08-10 22:00:00 24.2 0 Calma 10 Noroeste 0 -- -- 28
2019-08-10 21:00:00 28.4 4 Noroeste 24 Noroeste 0 -- -- 19
2019-08-10 20:00:00 32.1 8 Noroeste 30 Noroeste 0 -- -- 15
2019-08-10 19:00:00 32.9 13 Oeste 30 Oeste 0 -- -- 15
2019-08-10 18:00:00 33 12 Oeste 32 Oeste 0 -- -- 15
2019-08-10 17:00:00 31.6 8 Noroeste 30 Oeste 0 -- -- 19
2019-08-10 16:00:00 33.4 11 Noroeste 31 Oeste 0 -- -- 13
2019-08-10 15:00:00 30.4 13 Oeste 35 Oeste 0 -- -- 20
2019-08-10 14:00:00 28.6 12 Oeste 25 Oeste 0 -- -- 24
2019-08-10 13:00:00 26.6 9 Sudoeste 21 Oeste 0 -- -- 35
2019-08-10 12:00:00 24.8 10 Oeste 25 Oeste 0 -- -- 44
2019-08-10 11:00:00 23.4 7 Oeste 18 Noroeste 0 -- -- 50
2019-08-10 10:00:00 21.1 0 Calma 7 Sudoeste 0 -- -- 65
2019-08-10 09:00:00 17.5 0 Calma 4 Sudeste 0 -- -- 81
2019-08-10 08:00:00 15.3 0 Calma 6 Norte 0 -- -- 86
2019-08-10 07:00:00 15.7 2 Noroeste 6 Sur 0 -- -- 84
2019-08-10 06:00:00 16.9 4 Sur 7 Sudoeste 0 -- -- 80
2019-08-10 05:00:00 16.5 2 Este 4 Sudeste 0 -- -- 84
2019-08-10 04:00:00 16.7 2 Oeste 4 Sudeste 0 -- -- 80
2019-08-10 03:00:00 18 2 Sudoeste 10 Sudoeste 0 -- -- 75
2019-08-10 02:00:00 19.1 5 Oeste 16 Oeste 0 -- -- 68
2019-08-10 01:00:00 20 6 Oeste 19 Noroeste 0 -- -- 68
2019-08-10 00:00:00 21.1 9 Noroeste 20 Noroeste 0 -- -- 65
2019-08-09 23:00:00 22.2 9 Oeste 19 Oeste 0 -- -- 64
2019-08-09 22:00:00 23.2 11 Oeste 31 Oeste 0 -- -- 61
2019-08-09 21:00:00 24.6 17 Oeste 43 Oeste 0 -- -- 57
2019-08-09 20:00:00 25.5 24 Oeste 44 Oeste 0 -- -- 53
2019-08-09 19:00:00 25.6 26 Oeste 54 Oeste 0 -- -- 56
2019-08-09 18:00:00 30.3 26 Noroeste 48 Noroeste 0 -- -- 48
2019-08-09 17:00:00 31.3 21 Oeste 43 Oeste 0 -- -- 42
2019-08-09 16:00:00 31.5 19 Oeste 40 Oeste 0 -- -- 40
2019-08-09 15:00:00 30.9 17 Oeste 39 Oeste 0 -- -- 43
2019-08-09 14:00:00 29.6 20 Oeste 37 Oeste 0 -- -- 48
2019-08-09 13:00:00 27.5 16 Oeste 39 Oeste 0 -- -- 54
2019-08-09 12:00:00 27.2 22 Oeste 33 Oeste 0 -- -- 53
2019-08-09 11:00:00 25.5 19 Oeste 31 Oeste 0 -- -- 59
2019-08-09 10:00:00 24.6 18 Oeste 32 Oeste 0 -- -- 63
2019-08-09 09:00:00 22.4 17 Oeste 39 Noroeste 0 -- -- 73
2019-08-09 08:00:00 21.7 14 Noroeste 35 Noroeste 0 -- -- 76
2019-08-09 07:00:00 22 13 Oeste 24 Oeste 0 -- -- 72
2019-08-09 06:00:00 22.8 14 Oeste 30 Noroeste 0 -- -- 67
2019-08-09 05:00:00 23.4 15 Oeste 26 Oeste 0 -- -- 64
2019-08-09 04:00:00 23.9 13 Oeste 21 Oeste 0 -- -- 58
2019-08-09 03:00:00 25.4 9 Oeste 25 Oeste 0 -- -- 52
2019-08-09 02:00:00 26.2 17 Oeste 26 Oeste 0 -- -- 49
2019-08-09 01:00:00 27.3 14 Oeste 26 Oeste 0 -- -- 44
2019-08-09 00:00:00 27.7 10 Oeste 20 Noroeste 0 -- -- 39
2019-08-08 23:00:00 27.9 3 Oeste 18 Noroeste 0 -- -- 36
2019-08-08 22:00:00 30.3 7 Noroeste 28 Oeste 0 -- -- 29
2019-08-08 21:00:00 32.7 19 Oeste 38 Noroeste 0 -- -- 23
2019-08-08 20:00:00 34.7 20 Oeste 41 Noroeste 0 -- -- 21
2019-08-08 19:00:00 35.6 24 Oeste 42 Oeste 0 -- -- 20
2019-08-08 18:00:00 35.8 13 Oeste 41 Oeste 0 -- -- 22
2019-08-08 17:00:00 35.3 19 Oeste 32 Oeste 0 -- -- 23
2019-08-08 16:00:00 34.5 14 Oeste 32 Oeste 0 -- -- 24
2019-08-08 15:00:00 33.6 10 Oeste 30 Oeste 0 -- -- 27
2019-08-08 14:00:00 31.9 8 Oeste 26 Oeste 0 -- -- 29
2019-08-08 13:00:00 30.7 6 Oeste 23 Oeste 0 -- -- 32
2019-08-08 12:00:00 28.4 8 Oeste 17 Oeste 0 -- -- 36
2019-08-08 11:00:00 26.1 5 Oeste 13 Oeste 0 -- -- 45
2019-08-08 10:00:00 23.5 5 Sudoeste 11 Sudoeste 0 -- -- 53
2019-08-08 09:00:00 18.9 0 Calma 3 Nordeste 0 -- -- 76
2019-08-08 08:00:00 16.7 3 Norte 5 Norte 0 -- -- 81
2019-08-08 07:00:00 16.8 0 Calma 5 Norte 0 -- -- 80
2019-08-08 06:00:00 17.2 0 Calma 5 Sudeste 0 -- -- 77
2019-08-08 05:00:00 17.7 2 Noroeste 6 Sur 0 -- -- 77
2019-08-08 04:00:00 18 3 Sudoeste 8 Sudoeste 0 -- -- 74
2019-08-08 03:00:00 18.7 0 Calma 5 Noroeste 0 -- -- 68
2019-08-08 02:00:00 19.3 3 Noroeste 6 Noroeste 0 -- -- 67
2019-08-08 01:00:00 21 3 Sudoeste 9 Sur 0 -- -- 58
2019-08-08 00:00:00 21.4 3 Sur 7 Sudoeste 0 -- -- 59
2019-08-07 23:00:00 22 3 Noroeste 10 Noroeste 0 -- -- 56
2019-08-07 22:00:00 23.4 4 Noroeste 19 Oeste 0 -- -- 51
2019-08-07 21:00:00 26.3 10 Oeste 30 Oeste 0 -- -- 40
2019-08-07 20:00:00 26.9 14 Noroeste 30 Oeste 0 -- -- 38
2019-08-07 19:00:00 27.8 15 Oeste 24 Oeste 0 -- -- 33
2019-08-07 18:00:00 26.7 11 Oeste 23 Noroeste 0 -- -- 36
2019-08-07 17:00:00 26.7 11 Noroeste 31 Oeste 0 -- -- 43
2019-08-07 16:00:00 26.6 20 Oeste 34 Oeste 0 -- -- 41
2019-08-07 15:00:00 26.7 21 Oeste 34 Oeste 0 -- -- 43
2019-08-07 14:00:00 24.9 12 Noroeste 30 Oeste 0 -- -- 51
2019-08-07 13:00:00 25.9 14 Noroeste 33 Noroeste 0 -- -- 46
2019-08-07 12:00:00 25.4 15 Oeste 25 Oeste 0 -- -- 43
2019-08-07 11:00:00 24.6 10 Noroeste 21 Noroeste 0 -- -- 47
2019-08-07 10:00:00 23.6 9 Oeste 24 Oeste 0 -- -- 50
2019-08-07 09:00:00 23.3 12 Oeste 25 Oeste 0 -- -- 52
2019-08-07 08:00:00 22.9 6 Noroeste 21 Noroeste 0 -- -- 53
2019-08-07 07:00:00 23.4 5 Noroeste 20 Noroeste 0 -- -- 49
2019-08-07 06:00:00 22.9 6 Noroeste 13 Noroeste 0 -- -- 49
2019-08-07 05:00:00 24.3 6 Oeste 11 Noroeste 0 -- -- 42
2019-08-07 04:00:00 24.6 8 Noroeste 18 Oeste 0 -- -- 41
2019-08-07 03:00:00 25.7 10 Oeste 16 Oeste 0 -- -- 38
2019-08-07 02:00:00 27.1 6 Sudoeste 21 Oeste 0 -- -- 34
2019-08-07 01:00:00 27.2 8 Sudoeste 20 Noroeste 0 -- -- 32
2019-08-07 00:00:00 27.9 9 Sudoeste 16 Sudoeste 0 -- -- 26
2019-08-06 23:00:00 27.2 2 Sudoeste 14 Oeste 0 -- -- 28
2019-08-06 22:00:00 29.8 9 Oeste 24 Oeste 0 -- -- 21
2019-08-06 21:00:00 32.9 15 Oeste 32 Oeste 0 -- -- 17
2019-08-06 20:00:00 34.5 18 Noroeste 37 Oeste 0 -- -- 16
2019-08-06 19:00:00 36.1 13 Noroeste 32 Oeste 0 -- -- 16
2019-08-06 18:00:00 36.5 19 Oeste 34 Oeste 0 -- -- 15
2019-08-06 17:00:00 36.3 14 Oeste 34 Oeste 0 -- -- 15
2019-08-06 16:00:00 35.9 13 Oeste 30 Oeste 0 -- -- 15
2019-08-06 15:00:00 35.3 14 Oeste 32 Oeste 0 -- -- 14
2019-08-06 14:00:00 33.8 11 Oeste 25 Oeste 0 -- -- 18
2019-08-06 13:00:00 31.6 10 Oeste 24 Oeste 0 -- -- 21
2019-08-06 12:00:00 30.6 8 Oeste 21 Oeste 0 -- -- 24
2019-08-06 11:00:00 28.9 6 Noroeste 15 Noroeste 0 -- -- 28
2019-08-06 10:00:00 24.6 2 Noroeste 8 Sudoeste 0 -- -- 35
2019-08-06 09:00:00 19 4 Sudoeste 9 Sudoeste 0 -- -- 45
2019-08-06 08:00:00 15.4 0 Calma 5 Noroeste 0 -- -- 56
2019-08-06 07:00:00 16.4 0 Calma 6 Este 0 -- -- 49
2019-08-06 06:00:00 17.6 4 Este 7 Nordeste 0 -- -- 48
2019-08-06 05:00:00 16.8 0 Calma 4 Sur 0 -- -- 53
2019-08-06 04:00:00 17.6 0 Calma 4 Sur 0 -- -- 48
2019-08-06 03:00:00 18.3 2 Sudoeste 8 Oeste 0 -- -- 44
2019-08-06 02:00:00 19.2 4 Oeste 7 Noroeste 0 -- -- 40
2019-08-06 01:00:00 20 3 Noroeste 8 Sur 0 -- -- 43
2019-08-06 00:00:00 23.9 4 Sur 12 Sudoeste 0 -- -- 29
2019-08-05 23:00:00 25.2 4 Sur 7 Sur 0 -- -- 26
2019-08-05 22:00:00 28.7 4 Noroeste 17 Noroeste 0 -- -- 18
2019-08-05 21:00:00 33.1 7 Noroeste 24 Noroeste 0 -- -- 14
2019-08-05 20:00:00 36.7 8 Noroeste 29 Noroeste 0 -- -- 12
2019-08-05 19:00:00 37.5 8 Noroeste 30 Oeste 0 -- -- 13
2019-08-05 18:00:00 37.4 8 Noroeste 27 Noroeste 0 -- -- 13
2019-08-05 17:00:00 37.4 13 Oeste 27 Oeste 0 -- -- 13
2019-08-05 16:00:00 37 11 Noroeste 28 Oeste 0 -- -- 13
2019-08-05 15:00:00 36.4 12 Noroeste 27 Noroeste 0 -- -- 14
2019-08-05 14:00:00 35.7 10 Noroeste 27 Oeste 0 -- -- 14
2019-08-05 13:00:00 32.8 9 Oeste 19 Oeste 0 -- -- 18
2019-08-05 12:00:00 29.8 9 Oeste 19 Sudoeste 0 -- -- 27
2019-08-05 11:00:00 27.9 4 Sudoeste 12 Sur 0 -- -- 32
2019-08-05 10:00:00 24.2 5 Sur 10 Sudoeste 0 -- -- 48
2019-08-05 09:00:00 20 3 Sudoeste 10 Sudoeste 0 -- -- 57
2019-08-05 08:00:00 17.6 3 Sudoeste 11 Sudoeste 0 -- -- 61
2019-08-05 07:00:00 20 7 Sudoeste 13 Sudoeste 0 -- -- 52
2019-08-05 06:00:00 19.3 2 Sudoeste 12 Norte 0 -- -- 57
2019-08-05 05:00:00 19.4 3 Sudoeste 7 Oeste 0 -- -- 57
2019-08-05 04:00:00 19.7 2 Sudoeste 6 Sudoeste 0 -- -- 55
2019-08-05 03:00:00 21.2 5 Sudoeste 10 Sudoeste 0 -- -- 47
2019-08-05 02:00:00 23.1 2 Sudoeste 11 Sudoeste 0 -- -- 41
2019-08-05 01:00:00 26.5 7 Sudoeste 15 Sudoeste 0 -- -- 31
2019-08-05 00:00:00 27.2 8 Sudoeste 13 Sudoeste 0 -- -- 30
2019-08-04 23:00:00 26.7 4 Sur 9 Sur 0 -- -- 31
2019-08-04 22:00:00 29.4 5 Noroeste 21 Noroeste 0 -- -- 24
2019-08-04 21:00:00 33.9 8 Noroeste 30 Oeste 0 -- -- 18
2019-08-04 20:00:00 36.4 14 Oeste 28 Oeste 0 -- -- 14
2019-08-04 19:00:00 37.4 18 Oeste 35 Noroeste 0 -- -- 12
2019-08-04 18:00:00 37.1 15 Oeste 31 Oeste 0 -- -- 13
2019-08-04 17:00:00 37.2 12 Oeste 29 Noroeste 0 -- -- 15
2019-08-04 16:00:00 35.6 14 Oeste 32 Oeste 0 -- -- 15
2019-08-04 15:00:00 35.5 13 Oeste 32 Oeste 0 -- -- 16
2019-08-04 14:00:00 34.1 13 Oeste 31 Oeste 0 -- -- 20
2019-08-04 13:00:00 33 10 Oeste 23 Oeste 0 -- -- 22
2019-08-04 12:00:00 30.5 11 Oeste 22 Noroeste 0 -- -- 28
2019-08-04 11:00:00 29.5 6 Noroeste 17 Oeste 0 -- -- 30
2019-08-04 10:00:00 24.1 4 Sudoeste 8 Sudoeste 0 -- -- 38
2019-08-04 09:00:00 19 0 Calma 4 Norte 0 -- -- 52
2019-08-04 08:00:00 15.5 2 Norte 6 Norte 0 -- -- 66
2019-08-04 07:00:00 16.2 0 Calma 5 Sudoeste 0 -- -- 64
2019-08-04 06:00:00 16.9 3 Oeste 7 Sudoeste 0 -- -- 60
2019-08-04 05:00:00 17.6 2 Oeste 5 Oeste 0 -- -- 54
2019-08-04 04:00:00 18 3 Sudoeste 7 Sudoeste 0 -- -- 53
2019-08-04 03:00:00 19.6 4 Sudoeste 8 Sudoeste 0 -- -- 44
2019-08-04 02:00:00 20 4 Oeste 6 Oeste 0 -- -- 50
2019-08-04 01:00:00 21.5 3 Oeste 8 Sudoeste 0 -- -- 42
2019-08-04 00:00:00 23.5 6 Sudoeste 10 Sudoeste 0 -- -- 34
2019-08-03 23:00:00 25.2 3 Sur 5 Sur 0 -- -- 32
2019-08-03 22:00:00 29.3 3 Noroeste 17 Noroeste 0 -- -- 22
2019-08-03 21:00:00 33.4 5 Noroeste 30 Oeste 0 -- -- 17
2019-08-03 20:00:00 36.7 7 Noroeste 37 Noroeste 0 -- -- 13
2019-08-03 19:00:00 37.7 10 Noroeste 27 Noroeste 0 -- -- 13
2019-08-03 18:00:00 37.3 11 Oeste 35 Noroeste 0 -- -- 13
2019-08-03 17:00:00 37.3 10 Oeste 31 Oeste 0 -- -- 12
2019-08-03 16:00:00 36.9 9 Oeste 32 Oeste 0 -- -- 11
2019-08-03 15:00:00 36.1 7 Noroeste 27 Oeste 0 -- -- 13
2019-08-03 14:00:00 35.3 7 Oeste 22 Oeste 0 -- -- 14
2019-08-03 13:00:00 32.9 6 Este 13 Este 0 -- -- 21
2019-08-03 12:00:00 30.7 6 Este 16 Este 0 -- -- 25
2019-08-03 11:00:00 28.1 6 Este 16 Este 0 -- -- 29
2019-08-03 10:00:00 24.1 5 Este 13 Este 0 -- -- 31
2019-08-03 09:00:00 19.2 4 Nordeste 7 Nordeste 0 -- -- 45
2019-08-03 08:00:00 17.2 3 Este 8 Nordeste 0 -- -- 46
2019-08-03 07:00:00 16.1 3 Nordeste 6 Nordeste 0 -- -- 48
2019-08-03 06:00:00 17.1 4 Este 9 Nordeste 0 -- -- 44
2019-08-03 05:00:00 16.3 3 Este 6 Este 0 -- -- 54
2019-08-03 04:00:00 16.2 2 Norte 8 Este 0 -- -- 53
2019-08-03 03:00:00 17.8 3 Sur 6 Sudeste 0 -- -- 48
2019-08-03 02:00:00 18.3 0 Calma 6 Noroeste 0 -- -- 50
2019-08-03 01:00:00 20 2 Oeste 6 Sudoeste 0 -- -- 45
2019-08-03 00:00:00 21.5 3 Noroeste 6 Oeste 0 -- -- 41
2019-08-02 23:00:00 24.7 3 Sur 8 Sur 0 -- -- 28
2019-08-02 22:00:00 28.7 4 Oeste 17 Noroeste 0 -- -- 16
2019-08-02 21:00:00 33.2 4 Noroeste 21 Noroeste 0 -- -- 13
2019-08-02 20:00:00 36.7 9 Noroeste 23 Oeste 0 -- -- 11
2019-08-02 19:00:00 36.9 11 Oeste 25 Oeste 0 -- -- 11
2019-08-02 18:00:00 37.1 10 Oeste 30 Oeste 0 -- -- 10
2019-08-02 17:00:00 36.6 9 Oeste 27 Oeste 0 -- -- 11
2019-08-02 16:00:00 36.6 10 Noroeste 30 Oeste 0 -- -- 11
2019-08-02 15:00:00 35.8 8 Noroeste 30 Oeste 0 -- -- 12
2019-08-02 14:00:00 34.2 9 Oeste 23 Oeste 0 -- -- 17
2019-08-02 13:00:00 32.7 4 Sudoeste 12 Norte 0 -- -- 22
2019-08-02 12:00:00 30.2 3 Nordeste 8 Sudoeste 0 -- -- 27
2019-08-02 11:00:00 28.3 0 Calma 5 Sudeste 0 -- -- 25
2019-08-02 10:00:00 23.9 3 Nordeste 6 Nordeste 0 -- -- 35
2019-08-02 09:00:00 18.3 2 Norte 4 Nordeste 0 -- -- 53
2019-08-02 08:00:00 16 2 Este 5 Este 0 -- -- 62
2019-08-02 07:00:00 15.4 0 Calma 4 Sur 0 -- -- 68
2019-08-02 06:00:00 16 0 Calma 5 Oeste 0 -- -- 63
2019-08-02 05:00:00 16.6 4 Oeste 6 Noroeste 0 -- -- 60
2019-08-02 04:00:00 18 0 Calma 6 Sudoeste 0 -- -- 56
2019-08-02 03:00:00 20.5 4 Oeste 13 Sudoeste 0 -- -- 45
2019-08-02 02:00:00 22.7 4 Sur 16 Sudoeste 0 -- -- 32
2019-08-02 01:00:00 25.2 8 Sudoeste 18 Oeste 0 -- -- 27
2019-08-02 00:00:00 25.7 10 Sur 14 Sur 0 -- -- 28
2019-08-01 23:00:00 25.9 6 Noroeste 12 Noroeste 0 -- -- 24
2019-08-01 22:00:00 28.4 5 Noroeste 26 Noroeste 0 -- -- 21
2019-08-01 21:00:00 32.8 13 Oeste 31 Oeste 0 -- -- 15
2019-08-01 20:00:00 35 16 Oeste 38 Oeste 0 -- -- 13
2019-08-01 19:00:00 35.6 20 Oeste 44 Oeste 0 -- -- 12
2019-08-01 18:00:00 36.7 14 Oeste 35 Oeste 0 -- -- 11
2019-08-01 17:00:00 36.4 15 Oeste 33 Oeste 0 -- -- 12
2019-08-01 16:00:00 35.9 15 Noroeste 36 Oeste 0 -- -- 14
2019-08-01 15:00:00 33.7 14 Oeste 37 Oeste 0 -- -- 15
2019-08-01 14:00:00 32.1 11 Sudoeste 32 Sudoeste 0 -- -- 20
2019-08-01 13:00:00 31.6 7 Noroeste 16 Oeste 0 -- -- 26
2019-08-01 12:00:00 29.4 6 Sudeste 19 Sudeste 0 -- -- 37
2019-08-01 11:00:00 27.6 7 Este 20 Este 0 -- -- 42
2019-08-01 10:00:00 25.7 8 Este 23 Sudeste 0 -- -- 49
2019-08-01 09:00:00 23.1 4 Este 13 Este 0 -- -- 59
2019-08-01 08:00:00 21.2 3 Este 8 Este 0 -- -- 65
2019-08-01 07:00:00 21.5 4 Nordeste 10 Este 0 -- -- 63
2019-08-01 06:00:00 23.6 5 Este 19 Este 0 -- -- 57
2019-08-01 05:00:00 24.9 8 Este 25 Este 0 -- -- 53
2019-08-01 04:00:00 25.7 9 Este 27 Este 0 -- -- 51
2019-08-01 03:00:00 26.9 9 Este 26 Este 0 -- -- 48
2019-08-01 02:00:00 23.8 0 Calma 9 Sudoeste 0 -- -- 42
2019-08-01 01:00:00 24.3 3 Sudoeste 8 Este 0 -- -- 37
2019-08-01 00:00:00 26.2 3 Sudoeste 11 Sudoeste 0 -- -- 31
2019-07-31 23:00:00 28.9 3 Norte 13 Noroeste 0 -- -- 24
2019-07-31 22:00:00 29.8 4 Noroeste 14 Norte 0 -- -- 23
2019-07-31 21:00:00 32.4 6 Noroeste 16 Noroeste 0 -- -- 21
2019-07-31 20:00:00 36 3 Noroeste 13 Sudoeste 0 -- -- 17
2019-07-31 19:00:00 36.4 4 Sudeste 19 Norte 0 -- -- 17
2019-07-31 18:00:00 36.3 6 Noroeste 16 Noroeste 0 -- -- 19
2019-07-31 17:00:00 35.8 4 Norte 16 Nordeste 0 -- -- 21
2019-07-31 16:00:00 34.8 6 Norte 16 Noroeste 0 -- -- 21
2019-07-31 15:00:00 32.8 7 Nordeste 28 Este 0 -- -- 26
2019-07-31 14:00:00 31.6 10 Sudeste 31 Este 0 -- -- 30
2019-07-31 13:00:00 29.9 13 Este 36 Este 0 -- -- 37
2019-07-31 12:00:00 28.3 17 Este 34 Este 0 -- -- 39
2019-07-31 11:00:00 26.4 15 Este 36 Este 0 -- -- 43
2019-07-31 10:00:00 24.7 15 Este 35 Este 0 -- -- 43
2019-07-31 09:00:00 23 8 Este 21 Este 0 -- -- 40
2019-07-31 08:00:00 21.5 10 Sudeste 30 Este 0 -- -- 40
2019-07-31 07:00:00 22 12 Este 28 Sudeste 0 -- -- 37
2019-07-31 06:00:00 22.4 12 Este 37 Este 0 -- -- 35
2019-07-31 05:00:00 22.9 13 Este 45 Este 0 -- -- 33
2019-07-31 04:00:00 23.6 18 Este 42 Este 0 -- -- 31
2019-07-31 03:00:00 16.2 5 Este 12 Este 0 -- -- 51
2019-07-31 02:00:00 16.4 2 Noroeste 5 Noroeste 0 -- -- 50
2019-07-31 01:00:00 17.5 0 Calma 5 Nordeste 0 -- -- 49
2019-07-31 00:00:00 19 2 Norte 7 Norte 0 -- -- 39
2019-07-30 23:00:00 21.6 4 Sudeste 9 Este 0 -- -- 29
2019-07-30 22:00:00 24.6 0 Calma 3 Oeste 0 -- -- 30
2019-07-30 21:00:00 29.6 0 Calma 6 Nordeste 0 -- -- 17
2019-07-30 20:00:00 33.4 2 Este 10 Noroeste 0 -- -- 10
2019-07-30 19:00:00 33.2 4 Norte 12 Norte 0 -- -- 8
2019-07-30 18:00:00 32.9 5 Norte 11 Norte 0 -- -- 8
2019-07-30 17:00:00 32.4 6 Norte 17 Norte 0 -- -- 10
2019-07-30 16:00:00 31.1 8 Norte 19 Norte 0 -- -- 13
2019-07-30 15:00:00 30.1 7 Nordeste 19 Este 0 -- -- 13
2019-07-30 14:00:00 29.2 8 Este 24 Sudeste 0 -- -- 17
2019-07-30 13:00:00 27.9 9 Este 24 Sudeste 0 -- -- 22
2019-07-30 12:00:00 26.4 5 Este 19 Sudeste 0 -- -- 25
2019-07-30 11:00:00 24.3 9 Este 19 Este 0 -- -- 28
2019-07-30 10:00:00 21.7 7 Este 14 Sudeste 0 -- -- 33
2019-07-30 09:00:00 17.7 3 Nordeste 8 Nordeste 0 -- -- 49
2019-07-30 08:00:00 13.3 3 Nordeste 6 Nordeste 0 -- -- 60
2019-07-30 07:00:00 14.5 4 Este 10 Nordeste 0 -- -- 56
2019-07-30 06:00:00 14.9 4 Este 10 Este 0 -- -- 55
2019-07-30 05:00:00 14.1 3 Nordeste 6 Este 0 -- -- 60
2019-07-30 04:00:00 15.7 0 Calma 6 Sudeste 0 -- -- 57
2019-07-30 03:00:00 16.9 4 Noroeste 8 Noroeste 0 -- -- 51
2019-07-30 02:00:00 19.4 3 Oeste 11 Sudoeste 0 -- -- 37
2019-07-30 01:00:00 23 9 Sudoeste 17 Oeste 0 -- -- 27
2019-07-30 00:00:00 24 9 Oeste 16 Sudoeste 0 -- -- 27
2019-07-29 23:00:00 25.6 11 Oeste 21 Oeste 0 -- -- 22
2019-07-29 22:00:00 27.4 11 Oeste 35 Oeste 0 -- -- 17
2019-07-29 21:00:00 29.7 21 Oeste 41 Oeste 0 -- -- 14
2019-07-29 20:00:00 31.6 25 Oeste 41 Oeste 0 -- -- 15
2019-07-29 19:00:00 32.4 23 Oeste 43 Oeste 0 -- -- 17
2019-07-29 18:00:00 32.8 25 Oeste 46 Oeste 0 -- -- 13
2019-07-29 17:00:00 33.2 26 Oeste 46 Oeste 0 -- -- 18
2019-07-29 16:00:00 32.9 21 Oeste 45 Oeste 0 -- -- 17
2019-07-29 15:00:00 32.1 19 Oeste 39 Oeste 0 -- -- 17
2019-07-29 14:00:00 31.1 17 Oeste 33 Oeste 0 -- -- 16
2019-07-29 13:00:00 29.3 14 Oeste 35 Oeste 0 -- -- 19
2019-07-29 12:00:00 27.8 12 Oeste 27 Oeste 0 -- -- 30
2019-07-29 11:00:00 27 6 Noroeste 21 Noroeste 0 -- -- 34
2019-07-29 10:00:00 24.5 6 Noroeste 15 Noroeste 0 -- -- 42
2019-07-29 09:00:00 20.5 3 Sudoeste 6 Sur 0 -- -- 56
2019-07-29 08:00:00 16.5 0 Calma 4 Sudeste 0 -- -- 74
2019-07-29 07:00:00 16.4 0 Calma 4 Sur 0 -- -- 71
2019-07-29 06:00:00 17.2 0 Calma 4 Noroeste 0 -- -- 66
2019-07-29 05:00:00 18.1 3 Oeste 6 Noroeste 0 -- -- 63
2019-07-29 04:00:00 19.2 4 Sudoeste 10 Sudoeste 0 -- -- 59
2019-07-29 03:00:00 20 4 Sudoeste 9 Oeste 0 -- -- 52
2019-07-29 02:00:00 21 3 Noroeste 7 Oeste 0 -- -- 47
2019-07-29 01:00:00 23.2 8 Oeste 14 Sudoeste 0 -- -- 42
2019-07-29 00:00:00 22.5 2 Sur 8 Sur 0 -- -- 44
2019-07-28 23:00:00 24.4 3 Sur 8 Noroeste 0 -- -- 36
2019-07-28 22:00:00 27 5 Noroeste 19 Oeste 0 -- -- 28
2019-07-28 21:00:00 30.4 9 Noroeste 21 Oeste 0 -- -- 24
2019-07-28 20:00:00 32.5 12 Oeste 25 Oeste 0 -- -- 20
2019-07-28 19:00:00 33.2 12 Oeste 29 Oeste 0 -- -- 20
2019-07-28 18:00:00 32.6 10 Oeste 29 Sudoeste 0 -- -- 21
2019-07-28 17:00:00 31.8 8 Sudoeste 28 Oeste 0 -- -- 22
2019-07-28 16:00:00 31.7 9 Oeste 22 Noroeste 0 -- -- 24
2019-07-28 15:00:00 29.7 6 Sudoeste 21 Oeste 0 -- -- 28
2019-07-28 14:00:00 28.8 6 Sudeste 17 Este 0 -- -- 27
2019-07-28 13:00:00 27.2 5 Este 22 Este 0 -- -- 31
2019-07-28 12:00:00 25.6 10 Este 26 Este 0 -- -- 34
2019-07-28 11:00:00 24 11 Este 27 Sudeste 0 -- -- 37
2019-07-28 10:00:00 22.1 14 Este 35 Este 0 -- -- 42
2019-07-28 09:00:00 20 9 Este 22 Este 0 -- -- 53
2019-07-28 08:00:00 17 5 Nordeste 10 Nordeste 0 -- -- 66
2019-07-28 07:00:00 16.6 3 Este 7 Nordeste 0 -- -- 70
2019-07-28 06:00:00 16.9 2 Este 9 Este 0 -- -- 71
2019-07-28 05:00:00 17.6 0 Calma 6 Nordeste 0 -- -- 70
2019-07-28 04:00:00 18.2 2 Este 6 Sur 0 -- -- 71
2019-07-28 03:00:00 19.3 0 Calma 11 Sudoeste 0 -- -- 67
2019-07-28 02:00:00 21.8 6 Sudoeste 12 Sudoeste 0 -- -- 57
2019-07-28 01:00:00 20.7 4 Oeste 10 Sudoeste 0 -- -- 59
2019-07-28 00:00:00 23.1 6 Sudoeste 11 Sudoeste 0 -- -- 48
2019-07-27 23:00:00 22.8 5 Oeste 15 Noroeste 0 -- -- 46
2019-07-26 12:00:00 26.6 24 Oeste 39 Oeste 0 -- -- 38
2019-07-26 11:00:00 25.1 17 Oeste 33 Oeste 0 -- -- 49
2019-07-26 10:00:00 24.3 14 Noroeste 35 Noroeste 0 -- -- 55
2019-07-26 09:00:00 22.5 15 Noroeste 30 Noroeste 0 -- -- 62
2019-07-26 08:00:00 21.7 10 Noroeste 24 Noroeste 0 -- -- 66
2019-07-26 07:00:00 22 8 Noroeste 21 Oeste 0 -- -- 63
2019-07-26 06:00:00 23.2 5 Oeste 21 Oeste 0 -- -- 59
2019-07-26 05:00:00 24.8 15 Oeste 28 Oeste 0 -- -- 53
2019-07-26 04:00:00 25.5 15 Oeste 24 Oeste 0 -- -- 50
2019-07-26 03:00:00 25.8 18 Oeste 28 Noroeste 0 -- -- 48
2019-07-26 02:00:00 26.4 21 Oeste 41 Oeste 0 -- -- 44
2019-07-26 01:00:00 28.1 9 Oeste 22 Oeste 0 -- -- 32
2019-07-26 00:00:00 28 12 Oeste 19 Oeste 0 -- -- 31
2019-07-25 23:00:00 28.9 10 Oeste 19 Noroeste 0 -- -- 30
2019-07-25 22:00:00 30.5 10 Noroeste 31 Noroeste 0 -- -- 24
2019-07-25 21:00:00 33.1 14 Noroeste 26 Noroeste 0 -- -- 19
2019-07-25 20:00:00 35.3 9 Noroeste 24 Oeste 0 -- -- 18
2019-07-25 19:00:00 35.9 6 Noroeste 31 Noroeste 0 -- -- 18
2019-07-25 18:00:00 36.7 11 Noroeste 40 Noroeste 0 -- -- 18
2019-07-25 17:00:00 36.9 14 Noroeste 35 Oeste 0 -- -- 19
2019-07-25 16:00:00 35.2 14 Oeste 33 Oeste 0 -- -- 19
2019-07-25 15:00:00 35.4 10 Oeste 33 Oeste 0 -- -- 19
2019-07-25 14:00:00 34.4 6 Noroeste 19 Oeste 0 -- -- 20
2019-07-25 13:00:00 34.6 9 Noroeste 23 Oeste 0 -- -- 22
2019-07-25 12:00:00 32.6 6 Noroeste 17 Norte 0 -- -- 25
2019-07-25 11:00:00 30.4 5 Sudoeste 10 Noroeste 0 -- -- 30
2019-07-25 10:00:00 27.8 0 Calma 5 Este 0 -- -- 43
2019-07-25 09:00:00 22.8 3 Este 6 Este 0 -- -- 64
2019-07-25 08:00:00 18.9 0 Calma 3 Este 0 -- -- 78
2019-07-25 07:00:00 19.3 0 Calma 4 Oeste 0 -- -- 77
2019-07-25 06:00:00 20.2 0 Calma 5 Noroeste 0 -- -- 77
2019-07-25 05:00:00 21.5 3 Este 5 Este 0 -- -- 71
2019-07-25 04:00:00 22.9 3 Noroeste 8 Sudoeste 0 -- -- 66
2019-07-25 03:00:00 24.4 2 Oeste 8 Sudoeste 0 -- -- 66
2019-07-25 02:00:00 26.9 6 Sudoeste 12 Sudoeste 0 -- -- 52
2019-07-25 01:00:00 26 6 Oeste 11 Oeste 0 -- -- 56
2019-07-25 00:00:00 28.1 0 Calma 8 Sudoeste 0 -- -- 51
2019-07-24 23:00:00 30.6 4 Oeste 9 Noroeste 0 -- -- 36
2019-07-24 22:00:00 33.5 0 Calma 22 Sudoeste 0 -- -- 29
2019-07-24 21:00:00 36.5 0 Calma 8 Oeste 0 -- -- 25
2019-07-24 20:00:00 38.6 4 Oeste 18 Noroeste 0 -- -- 19
2019-07-24 19:00:00 38.5 4 Oeste 12 Oeste 0 -- -- 18
2019-07-24 18:00:00 38.3 5 Noroeste 21 Oeste 0 -- -- 19
2019-07-24 17:00:00 38.7 6 Noroeste 16 Norte 0 -- -- 19
2019-07-24 16:00:00 37.8 5 Noroeste 15 Noroeste 0 -- -- 19
2019-07-24 15:00:00 36.9 5 Noroeste 14 Sudeste 0 -- -- 20
2019-07-24 14:00:00 35.2 5 Sur 21 Sudeste 0 -- -- 21
2019-07-24 13:00:00 33.5 10 Este 24 Sudeste 0 -- -- 24
2019-07-24 12:00:00 30.7 9 Este 18 Este 0 -- -- 35
2019-07-24 11:00:00 27.5 7 Este 14 Este 0 -- -- 47
2019-07-24 10:00:00 24.7 5 Este 14 Este 0 -- -- 59
2019-07-24 09:00:00 21.9 4 Este 11 Sudeste 0 -- -- 71
2019-07-24 08:00:00 20 3 Este 8 Nordeste 0 -- -- 80
2019-07-24 07:00:00 19.8 4 Nordeste 9 Este 0 -- -- 81
2019-07-24 06:00:00 20.1 5 Nordeste 9 Nordeste 0 -- -- 82
2019-07-24 05:00:00 20.3 3 Norte 6 Norte 0 -- -- 80
2019-07-24 04:00:00 20.9 5 Noroeste 8 Sudeste 0 -- -- 77
2019-07-24 03:00:00 21.8 0 Calma 10 Nordeste 0 -- -- 71
2019-07-24 02:00:00 22.7 5 Nordeste 12 Nordeste 0 -- -- 64
2019-07-24 01:00:00 23.8 4 Este 17 Este 0 -- -- 59
2019-07-24 00:00:00 25.6 7 Este 21 Este 0 -- -- 48
2019-07-23 23:00:00 26.9 9 Sudeste 20 Sudeste 0 -- -- 40
2019-07-23 22:00:00 28.4 5 Sudeste 42 Sudeste 0 -- -- 37
2019-07-23 21:00:00 27 17 Nordeste 40 Nordeste 0.8 -- -- 45
2019-07-23 20:00:00 27.7 12 Sudoeste 62 Sur 0.4 -- -- 35
2019-07-23 19:00:00 39.1 8 Oeste 19 Oeste 0 -- -- 18
2019-07-23 18:00:00 38.9 8 Norte 18 Norte 0 -- -- 16
2019-07-23 17:00:00 38 4 Norte 22 Nordeste 0 -- -- 19
2019-07-23 16:00:00 36.8 9 Nordeste 18 Norte 0 -- -- 21
2019-07-23 15:00:00 35.7 9 Este 26 Este 0 -- -- 19
2019-07-23 14:00:00 34.5 14 Este 32 Este 0 -- -- 22
2019-07-23 13:00:00 32.9 14 Este 34 Este 0 -- -- 25
2019-07-23 12:00:00 30.1 11 Nordeste 31 Nordeste 0 -- -- 37
2019-07-23 11:00:00 28 5 Norte 27 Sudeste 0 -- -- 38
2019-07-23 10:00:00 25.7 5 Este 15 Este 0 -- -- 56
2019-07-23 09:00:00 22 5 Nordeste -- -- -- -- -- 74
2019-07-23 08:00:00 21.1 4 Norte 11 Sudeste 0 -- -- 81
2019-07-23 07:00:00 22.1 8 Este 19 Este 0.8 -- -- 70
2019-07-23 06:00:00 22.4 8 Nordeste 31 Oeste 1.6 -- -- 65
2019-07-23 05:00:00 25.2 6 Este 40 Oeste 0.2 -- -- 48
2019-07-23 04:00:00 27 14 Sudoeste 41 Oeste 0 -- -- 34
2019-07-23 03:00:00 27.4 22 Nordeste 49 Nordeste 1.2 -- -- 30
2019-07-23 02:00:00 28.4 12 Este 48 Oeste 1 -- -- 28
2019-07-23 01:00:00 29.1 5 Oeste 13 Oeste 0 -- -- 34
2019-07-23 00:00:00 31.6 4 Sudeste 22 Este 0 -- -- 22
2019-07-22 23:00:00 34 10 Nordeste 27 Oeste 0 -- -- 16
2019-07-22 22:00:00 33.5 4 Nordeste 12 Sur 0 -- -- 25
2019-07-22 21:00:00 35.8 10 Sur 42 Sur 0 -- -- 20
2019-07-22 20:00:00 39.7 15 Este 33 Sudeste 0 -- -- 14
2019-07-22 19:00:00 40.4 6 Este 20 Nordeste 0 -- -- 15
2019-07-22 18:00:00 40 8 Este 26 Este 0 -- -- 17
2019-07-22 17:00:00 39.5 6 Este 21 Nordeste 0 -- -- 18
2019-07-22 16:00:00 38.3 10 Este 30 Sudeste 0 -- -- 19
2019-07-22 15:00:00 37 13 Este 34 Sudeste 0 -- -- 21
2019-07-22 14:00:00 35.4 12 Este 39 Este 0 -- -- 21
2019-07-22 13:00:00 33.6 15 Este 37 Este 0 -- -- 22
2019-07-22 12:00:00 31.7 18 Este 41 Este 0 -- -- 25
2019-07-22 11:00:00 30.3 18 Este 36 Este 0 -- -- 26
2019-07-22 10:00:00 28.2 14 Este 37 Este 0 -- -- 31
2019-07-22 09:00:00 27 13 Este 35 Este 0 -- -- 30
2019-07-22 08:00:00 26.3 16 Sudeste 37 Este 0 -- -- 32
2019-07-22 07:00:00 26.8 19 Este 39 Este 0 -- -- 31
2019-07-22 06:00:00 27.6 17 Este 39 Este 0 -- -- 30
2019-07-22 05:00:00 28.3 16 Este 42 Este 0 -- -- 29
2019-07-22 04:00:00 28.8 12 Este 30 Este 0 -- -- 29
2019-07-22 03:00:00 29.6 9 Este 30 Este 0 -- -- 31
2019-07-22 02:00:00 31.3 9 Este 30 Este 0 -- -- 30
2019-07-22 01:00:00 30.2 3 Este 9 Nordeste 0 -- -- 30
2019-07-22 00:00:00 31.3 4 Nordeste 16 Este 0 -- -- 26
2019-07-21 23:00:00 31.8 3 Sudeste 9 Noroeste 0 -- -- 25
2019-07-21 22:00:00 33.9 4 Noroeste 18 Noroeste 0 -- -- 22
2019-07-21 21:00:00 36.7 5 Noroeste 17 Noroeste 0 -- -- 20
2019-07-21 20:00:00 39.2 4 Noroeste 19 Oeste 0 -- -- 17
2019-07-21 19:00:00 40.3 7 Sudoeste 16 Nordeste 0 -- -- 13
2019-07-21 18:00:00 40.5 5 Sudoeste 20 Noroeste 0 -- -- 12
2019-07-21 17:00:00 39.9 5 Oeste 16 Oeste 0 -- -- 13
2019-07-21 16:00:00 38.6 4 Norte 17 Nordeste 0 -- -- 14
2019-07-21 15:00:00 37.8 3 Este 17 Sudeste 0 -- -- 14
2019-07-21 14:00:00 36.3 10 Este 28 Este 0 -- -- 19
2019-07-21 13:00:00 34.3 13 Este 31 Este 0 -- -- 23
2019-07-21 12:00:00 32.6 12 Este 26 Este 0 -- -- 26
2019-07-21 11:00:00 31 8 Este 25 Este 0 -- -- 28
2019-07-21 10:00:00 28.8 8 Este 22 Este 0 -- -- 31
2019-07-21 09:00:00 24.1 3 Este 11 Este 0 -- -- 46
2019-07-21 08:00:00 22.3 6 Este 13 Este 0 -- -- 45
2019-07-21 07:00:00 21 4 Nordeste 8 Este 0 -- -- 48
2019-07-21 06:00:00 20.9 4 Este 10 Este 0 -- -- 52
2019-07-21 05:00:00 20.7 2 Noroeste 6 Sudeste 0 -- -- 54
2019-07-21 04:00:00 22.2 0 Calma 11 Nordeste 0 -- -- 49
2019-07-21 03:00:00 21.8 2 Este 9 Sudeste 0 -- -- 53
2019-07-21 02:00:00 22.7 3 Noroeste 6 Este 0 -- -- 51
2019-07-21 01:00:00 24.2 4 Oeste 10 Sur 0 -- -- 48
2019-07-21 00:00:00 26.7 5 Sur 10 Sur 0 -- -- 33
2019-07-20 23:00:00 28.1 3 Oeste 6 Oeste 0 -- -- 32
2019-07-20 22:00:00 31.7 3 Noroeste 18 Norte 0 -- -- 26
2019-07-20 21:00:00 35.5 4 Noroeste 25 Noroeste 0 -- -- 20
2019-07-20 20:00:00 37.9 7 Noroeste 24 Noroeste 0 -- -- 16
2019-07-20 19:00:00 39.1 8 Norte 25 Noroeste 0 -- -- 16
2019-07-20 18:00:00 39.7 10 Noroeste 25 Oeste 0 -- -- 14
2019-07-20 17:00:00 39.8 10 Noroeste 27 Oeste 0 -- -- 13
2019-07-20 16:00:00 38.7 6 Noroeste 24 Oeste 0 -- -- 14
2019-07-20 15:00:00 37.1 5 Noroeste 16 Noroeste 0 -- -- 16
2019-07-20 14:00:00 36.1 4 Sur 17 Este 0 -- -- 19
2019-07-20 13:00:00 34.2 6 Nordeste 21 Este 0 -- -- 22
2019-07-20 12:00:00 32.6 6 Este 23 Sudeste 0 -- -- 26
2019-07-20 11:00:00 29.7 12 Sudeste 25 Este 0 -- -- 30
2019-07-20 10:00:00 27.9 12 Este 26 Este 0 -- -- 31
2019-07-20 09:00:00 24 6 Este 13 Este 0 -- -- 44
2019-07-20 08:00:00 20.1 6 Este 11 Este 0 -- -- 59
2019-07-20 07:00:00 19.7 3 Sudeste 8 Sur 0 -- -- 59
2019-07-20 06:00:00 20.1 2 Sur 5 Noroeste 0 -- -- 59
2019-07-20 05:00:00 21.5 2 Oeste 8 Nordeste 0 -- -- 52
2019-07-20 04:00:00 22.3 3 Este 13 Este 0 -- -- 48
2019-07-20 03:00:00 23.6 6 Sur 10 Sur 0 -- -- 45
2019-07-20 02:00:00 23.6 2 Sudoeste 13 Oeste 0 -- -- 46
2019-07-20 01:00:00 24.2 0 Calma 5 Oeste 0 -- -- 47
2019-07-20 00:00:00 25.8 2 Norte 5 Sudeste 0 -- -- 42
2019-07-19 23:00:00 29 4 Sudeste 7 Norte 0 -- -- 32
2019-07-19 22:00:00 31.9 4 Noroeste 12 Norte 0 -- -- 25
2019-07-19 21:00:00 35.4 4 Noroeste 16 Noroeste 0 -- -- 21
2019-07-19 20:00:00 38.1 6 Noroeste 25 Norte 0 -- -- 17
2019-07-19 19:00:00 39.5 8 Noroeste 30 Oeste 0 -- -- 15
2019-07-19 18:00:00 39.1 5 Sur 23 Sudoeste 0 -- -- 13
2019-07-19 17:00:00 39.4 12 Noroeste 27 Oeste 0 -- -- 13
2019-07-19 16:00:00 38.6 8 Sudoeste 20 Sudoeste 0 -- -- 14
2019-07-19 15:00:00 37.1 5 Noroeste 14 Norte 0 -- -- 16
2019-07-19 14:00:00 35.4 5 Nordeste 19 Este 0 -- -- 21
2019-07-19 13:00:00 33.8 8 Este 27 Sudeste 0 -- -- 24
2019-07-19 12:00:00 31.7 13 Sudeste 27 Sudeste 0 -- -- 28
2019-07-19 11:00:00 30.2 10 Este 27 Este 0 -- -- 31
2019-07-19 10:00:00 28.4 11 Este 29 Este 0 -- -- 33
2019-07-19 09:00:00 26.7 9 Este 24 Este 0 -- -- 36
2019-07-19 08:00:00 25.6 8 Este 31 Sudeste 0 -- -- 37
2019-07-19 07:00:00 26.8 16 Este 37 Este 0 -- -- 33
2019-07-19 06:00:00 23.3 3 Este 10 Nordeste 0 -- -- 44
2019-07-19 05:00:00 22 2 Este 5 Norte 0 -- -- 52
2019-07-19 04:00:00 22.7 2 Norte 7 Nordeste 0 -- -- 54
2019-07-19 03:00:00 23.9 0 Calma 4 Este 0 -- -- 50
2019-07-19 02:00:00 25.3 2 Este 6 Sudoeste 0 -- -- 44
2019-07-19 01:00:00 27.5 4 Sudoeste 12 Oeste 0 -- -- 36
2019-07-19 00:00:00 28.6 5 Sudoeste 11 Sudoeste 0 -- -- 35